Time;durP1;ratioP1;P1;durP2;ratioP2;P2;SDS_P1;SDS_P2;PMS_P1;PMS_P2;Temp;Humidity;BMP_temperature;BMP_pressure;BME280_temperature;BME280_humidity;BME280_pressure;Samples;Min_cycle;Max_cycle;Signal;HPM_P1;HPM_P2
2021/01/03 00:02:57;;;;;;;34.55;17.90;;;;;;;3.27;88.59;101607.77;1704171;84;21308;-76
2021/01/03 00:06:04;;;;;;;26.02;17.27;;;;;;;3.22;88.76;101607.20;1705505;84;21317;-75
2021/01/03 00:09:12;;;;;;;20.90;14.68;;;;;;;3.17;88.83;101612.52;1705560;84;21316;-75
2021/01/03 00:12:18;;;;;;;22.93;15.95;;;;;;;3.10;88.90;101617.42;1704702;84;21344;-76
2021/01/03 00:15:26;;;;;;;21.02;13.50;;;;;;;3.09;89.07;101612.99;1705450;84;21518;-76
2021/01/03 00:18:32;;;;;;;20.02;13.60;;;;;;;3.12;89.21;101618.22;1705545;84;21249;-76
2021/01/03 00:21:37;;;;;;;21.12;13.40;;;;;;;3.15;89.33;101619.36;1684893;84;21278;-76
2021/01/03 00:24:42;;;;;;;26.20;14.70;;;;;;;3.13;89.36;101611.84;1677878;85;21885;-75
2021/01/03 00:27:49;;;;;;;23.00;14.07;;;;;;;3.10;89.38;101603.91;1677876;85;21247;-75
2021/01/03 00:30:54;;;;;;;20.75;14.63;;;;;;;3.08;89.52;101609.42;1677954;85;21321;-76
2021/01/03 00:34:00;;;;;;;20.68;14.03;;;;;;;3.06;89.61;101613.20;1677897;85;21365;-76
2021/01/03 00:37:06;;;;;;;29.63;15.78;;;;;;;3.01;89.72;101606.73;1677847;85;21213;-76
2021/01/03 00:40:16;;;;;;;23.02;16.15;;;;;;;3.01;89.90;101612.59;1677959;85;21325;-76
2021/01/03 00:43:21;;;;;;;22.60;15.80;;;;;;;2.98;89.96;101608.75;1677722;85;21353;-76
2021/01/03 00:46:27;;;;;;;22.22;16.57;;;;;;;2.95;89.98;101617.04;1677861;85;21203;-76
2021/01/03 00:49:34;;;;;;;25.72;17.45;;;;;;;2.94;89.99;101618.02;1677994;85;21313;-76
2021/01/03 00:52:39;;;;;;;23.55;15.95;;;;;;;2.95;90.02;101612.50;1676648;85;21337;-76
2021/01/03 00:55:45;;;;;;;23.00;15.08;;;;;;;2.91;89.90;101611.44;1677966;85;21255;-76
2021/01/03 00:58:51;;;;;;;26.90;15.72;;;;;;;2.86;89.87;101612.20;1678882;85;21318;-75
2021/01/03 01:01:57;;;;;;;25.17;17.62;;;;;;;2.81;89.88;101620.11;1677656;85;21369;-75
2021/01/03 01:05:04;;;;;;;24.05;16.30;;;;;;;2.77;90.00;101619.91;1677980;85;21318;-76
2021/01/03 01:08:09;;;;;;;29.95;17.20;;;;;;;2.72;90.16;101620.67;1677994;85;21916;-76
2021/01/03 01:11:15;;;;;;;25.88;18.67;;;;;;;2.67;90.39;101617.39;1678015;85;21361;-76
2021/01/03 01:14:23;;;;;;;20.97;13.25;;;;;;;2.64;90.63;101617.59;1677526;85;21329;-76
2021/01/03 01:17:29;;;;;;;24.63;15.23;;;;;;;2.66;90.82;101615.66;1678905;85;21168;-76
2021/01/03 01:20:34;;;;;;;22.35;16.32;;;;;;;2.68;90.89;101619.16;1678941;85;21210;-76
2021/01/03 01:23:39;;;;;;;23.32;16.90;;;;;;;2.70;91.00;101621.75;1689134;85;21372;-76
2021/01/03 01:26:44;;;;;;;18.37;12.88;;;;;;;2.70;91.12;101617.22;1690055;85;21270;-76
2021/01/03 01:29:50;;;;;;;23.52;15.18;;;;;;;2.73;91.15;101624.25;1689492;85;21939;-76
2021/01/03 01:32:57;;;;;;;23.92;17.17;;;;;;;2.74;91.12;101615.20;1690799;85;21312;-76
2021/01/03 01:36:05;;;;;;;28.35;19.85;;;;;;;2.74;91.06;101622.82;1688669;85;21356;-76
2021/01/03 01:39:10;;;;;;;40.38;25.68;;;;;;;2.72;90.97;101615.76;1688587;85;21317;-76
2021/01/03 01:42:17;;;;;;;37.45;22.58;;;;;;;2.70;91.02;101614.52;1689989;85;21210;-76
2021/01/03 01:45:24;;;;;;;38.20;25.82;;;;;;;2.73;91.11;101617.03;1689314;85;21246;-76
2021/01/03 01:48:37;;;;;;;53.38;33.73;;;;;;;2.73;91.16;101622.44;1689997;85;21837;-75
2021/01/03 01:51:46;;;;;;;73.12;39.00;;;;;;;2.75;91.24;101628.61;1690888;85;21277;-76
2021/01/03 01:55:01;;;;;;;48.17;29.48;;;;;;;2.74;91.20;101625.52;1690882;85;21280;-76
2021/01/03 01:58:30;;;;;;;53.05;31.20;;;;;;;2.69;91.11;101621.38;1690458;85;21206;-76
2021/01/03 02:01:52;;;;;;;78.35;42.05;;;;;;;2.62;91.04;101618.16;1689980;85;21833;-76
2021/01/03 02:05:10;;;;;;;85.55;45.30;;;;;;;2.56;91.16;101617.19;1690049;85;21313;-76
2021/01/03 02:08:28;;;;;;;56.63;31.35;;;;;;;2.54;91.34;101617.29;1690653;85;21328;-75
2021/01/03 02:11:35;;;;;;;38.30;23.60;;;;;;;2.53;91.45;101622.77;1689957;85;21277;-76
2021/01/03 02:14:41;;;;;;;25.60;18.00;;;;;;;2.55;91.50;101619.02;1690928;85;21320;-76
2021/01/03 02:17:46;;;;;;;21.82;15.53;;;;;;;2.60;91.52;101616.04;1690978;85;21281;-76
2021/01/03 02:21:16;;;;;;;24.57;17.07;;;;;;;2.60;91.35;101606.59;1676611;85;21345;-76
2021/01/03 02:24:43;;;;;;;;;;;;;;;2.57;91.32;101601.36;1694696;84;21387;-76
2021/01/03 02:28:25;;;;;;;24.90;16.60;;;;;;;2.55;91.44;101597.89;1695507;84;20765;-76
2021/01/03 02:31:39;;;;;;;25.88;16.87;;;;;;;2.52;91.56;101607.53;1694429;84;21335;-76
2021/01/03 02:34:49;;;;;;;25.40;17.35;;;;;;;2.47;91.70;101604.23;1694291;84;21345;-76
2021/01/03 02:37:55;;;;;;;24.55;15.78;;;;;;;2.45;91.84;101604.83;1695779;84;21352;-75
2021/01/03 02:41:00;;;;;;;29.98;18.85;;;;;;;2.45;92.01;101608.88;1695456;84;21313;-76
2021/01/03 02:44:07;;;;;;;25.48;16.85;;;;;;;2.45;92.21;101612.93;1694857;84;21309;-76
2021/01/03 02:47:13;;;;;;;29.40;16.85;;;;;;;2.47;92.39;101606.94;1696182;84;21309;-76
2021/01/03 02:50:20;;;;;;;26.07;17.42;;;;;;;2.49;92.57;101602.30;1696438;84;21277;-76
2021/01/03 02:53:26;;;;;;;30.45;19.67;;;;;;;2.53;92.69;101606.07;1696302;84;21202;-76
2021/01/03 02:56:32;;;;;;;30.40;20.02;;;;;;;2.54;92.76;101609.64;1695523;84;21615;-76
2021/01/03 02:59:38;;;;;;;32.65;21.97;;;;;;;2.52;92.81;101602.99;1695515;84;21206;-76
2021/01/03 03:02:43;;;;;;;31.27;19.95;;;;;;;2.53;92.93;101609.26;1696417;84;21182;-76
2021/01/03 03:05:49;;;;;;;34.53;20.70;;;;;;;2.55;93.06;101601.95;1696452;84;21852;-75
2021/01/03 03:08:54;;;;;;;45.80;25.70;;;;;;;2.56;93.17;101601.84;1696323;84;21273;-76
2021/01/03 03:12:00;;;;;;;38.53;23.15;;;;;;;2.57;93.20;101608.11;1696309;84;21193;-76
2021/01/03 03:15:05;;;;;;;34.65;22.65;;;;;;;2.59;93.27;101607.56;1696378;84;21821;-75
2021/01/03 03:18:11;;;;;;;38.78;21.77;;;;;;;2.56;93.17;101607.25;1695404;84;21190;-76
2021/01/03 03:21:16;;;;;;;31.12;17.95;;;;;;;2.54;93.06;101605.59;1695451;84;21313;-76
2021/01/03 03:24:22;;;;;;;25.62;15.93;;;;;;;2.53;93.06;101607.91;1688092;84;21400;-76
2021/01/03 03:27:28;;;;;;;46.20;28.38;;;;;;;2.52;93.07;101611.58;1677973;85;21313;-76
2021/01/03 03:30:35;;;;;;;38.65;24.37;;;;;;;2.49;93.06;101618.50;1678042;85;21211;-76
2021/01/03 03:33:40;;;;;;;36.35;22.52;;;;;;;2.46;93.07;101618.23;1676535;85;21357;-76
2021/01/03 03:36:46;;;;;;;48.95;26.93;;;;;;;2.48;93.10;101620.82;1678040;85;21328;-76
2021/01/03 03:39:52;;;;;;;45.17;26.68;;;;;;;2.49;93.11;101621.20;1676561;85;21207;-76
2021/01/03 03:42:57;;;;;;;51.10;28.77;;;;;;;2.49;93.11;101626.16;1677960;85;21325;-75
2021/01/03 03:46:02;;;;;;;42.40;25.32;;;;;;;2.49;93.11;101624.80;1678213;85;21241;-76
2021/01/03 03:49:08;;;;;;;33.42;22.22;;;;;;;2.49;93.09;101626.61;1677910;85;21388;-76
2021/01/03 03:52:13;;;;;;;34.88;20.77;;;;;;;2.47;93.04;101626.70;1677888;85;21418;-76
2021/01/03 03:55:19;;;;;;;31.05;19.85;;;;;;;2.46;92.95;101634.43;1678814;85;21831;-76
2021/01/03 03:58:24;;;;;;;42.83;27.10;;;;;;;2.47;92.91;101629.89;1678899;85;21327;-76
2021/01/03 04:01:30;;;;;;;57.40;34.23;;;;;;;2.47;92.92;101625.84;1678755;85;21223;-76
2021/01/03 04:04:37;;;;;;;70.67;36.70;;;;;;;2.46;92.99;101627.68;1678803;85;21179;-76
2021/01/03 04:07:42;;;;;;;64.82;34.98;;;;;;;2.46;93.07;101625.46;1678809;85;21227;-76
2021/01/03 04:10:47;;;;;;;58.68;31.73;;;;;;;2.47;93.09;101626.70;1678864;85;21179;-76
2021/01/03 04:13:52;;;;;;;50.48;31.57;;;;;;;2.48;93.05;101632.98;1678037;85;21258;-76
2021/01/03 04:17:01;;;;;;;47.80;29.57;;;;;;;2.45;92.90;101632.70;1677752;85;21892;-75
2021/01/03 04:20:06;;;;;;;61.20;32.78;;;;;;;2.44;92.84;101634.12;1677901;85;21199;-76
2021/01/03 04:23:16;;;;;;;78.35;47.05;;;;;;;2.46;92.87;101635.78;1677937;85;21861;-77
2021/01/03 04:26:27;;;;;;;79.45;44.85;;;;;;;2.46;92.83;101637.13;1688978;84;21331;-75
2021/01/03 04:29:32;;;;;;;56.40;34.27;;;;;;;2.46;92.80;101641.66;1695498;84;21309;-77
2021/01/03 04:32:38;;;;;;;48.58;28.95;;;;;;;2.43;92.75;101659.39;1695134;84;21987;-77
2021/01/03 04:35:44;;;;;;;55.90;30.23;;;;;;;2.43;92.76;101652.64;1694022;84;21349;-76
2021/01/03 04:38:49;;;;;;;51.95;30.30;;;;;;;2.45;92.74;101661.54;1695401;84;21313;-77
2021/01/03 04:41:56;;;;;;;46.95;30.05;;;;;;;2.44;92.75;101655.23;1695275;84;21321;-76
2021/01/03 04:45:06;;;;;;;40.95;25.27;;;;;;;2.44;92.80;101636.34;1695875;84;21186;-76
2021/01/03 04:48:28;;;;;;;43.65;26.97;;;;;;;2.45;92.77;101646.69;1696369;84;21332;-77
2021/01/03 04:51:37;;;;;;;51.00;30.52;;;;;;;2.45;92.73;101639.45;1696271;84;21289;-76
2021/01/03 04:54:45;;;;;;;47.77;28.00;;;;;;;2.44;92.68;101655.23;1682062;84;21293;-76
2021/01/03 04:58:23;;;;;;;60.50;32.20;;;;;;;2.44;92.65;101660.64;1696380;84;21293;-76
2021/01/03 05:02:12;;;;;;;53.13;30.97;;;;;;;2.45;92.67;101652.09;1693746;84;21313;-77
2021/01/03 05:05:30;;;;;;;52.85;30.15;;;;;;;2.48;92.68;101643.78;1696264;84;21277;-76
2021/01/03 05:08:55;;;;;;;65.80;35.40;;;;;;;2.48;92.67;101643.78;1696284;84;21284;-76
2021/01/03 05:12:24;;;;;;;58.83;32.40;;;;;;;2.48;92.71;101641.08;1696363;84;21352;-77
2021/01/03 05:15:35;;;;;;;56.83;31.05;;;;;;;2.47;92.70;101641.56;1696298;84;21742;-76
2021/01/03 05:18:41;;;;;;;38.45;23.42;;;;;;;2.45;92.47;101634.53;1682418;84;21344;-77
2021/01/03 05:21:59;;;;;;;34.03;21.00;;;;;;;2.42;92.42;101638.75;1696358;84;21801;-76
2021/01/03 05:25:05;;;;;;;36.55;21.42;;;;;;;2.41;92.32;101628.92;1695299;84;21983;-76
2021/01/03 05:28:12;;;;;;;36.50;23.02;;;;;;;2.39;92.22;101636.23;1696511;84;21376;-76
2021/01/03 05:31:27;;;;;;;42.17;25.55;;;;;;;2.35;92.17;101642.77;1696396;84;21749;-77
2021/01/03 05:34:48;;;;;;;48.08;30.27;;;;;;;2.32;92.17;101654.64;1696472;84;21817;-76
2021/01/03 05:37:53;;;;;;;48.42;28.80;;;;;;;2.32;92.20;101648.38;1696489;84;21171;-76
2021/01/03 05:40:58;;;;;;;36.85;23.67;;;;;;;2.35;92.26;101657.13;1695596;84;21329;-77
2021/01/03 05:44:06;;;;;;;44.73;27.25;;;;;;;2.39;92.21;101660.53;1695380;84;21840;-76
2021/01/03 05:47:28;;;;;;;35.92;22.55;;;;;;;2.36;92.09;101656.69;1694286;84;21312;-76
2021/01/03 05:50:38;;;;;;;44.83;27.50;;;;;;;2.36;92.12;101662.09;1695582;84;21324;-76
2021/01/03 05:53:43;;;;;;;47.30;31.07;;;;;;;2.34;92.06;101652.70;1695448;84;21356;-76
2021/01/03 05:56:50;;;;;;;36.03;22.37;;;;;;;2.32;92.05;101657.82;1694056;84;21773;-76
2021/01/03 05:59:56;;;;;;;38.15;22.93;;;;;;;2.32;92.11;101653.77;1694284;84;21258;-77
2021/01/03 06:03:02;;;;;;;55.12;32.00;;;;;;;2.32;92.16;101659.17;1695557;84;21265;-76
2021/01/03 06:06:19;;;;;;;55.30;32.90;;;;;;;2.32;92.20;101663.22;1681290;84;21317;-76
2021/01/03 06:09:26;;;;;;;43.75;27.67;;;;;;;2.30;92.17;101661.94;1696274;84;21873;-76
2021/01/03 06:12:34;;;;;;;37.90;23.00;;;;;;;2.31;92.19;101665.05;1696409;84;21805;-77
2021/01/03 06:15:46;;;;;;;35.03;20.92;;;;;;;2.32;92.25;101664.57;1696358;84;21808;-76
2021/01/03 06:18:59;;;;;;;50.33;30.72;;;;;;;2.34;92.33;101672.09;1696104;84;21356;-77
2021/01/03 06:22:05;;;;;;;41.95;26.87;;;;;;;2.33;92.21;101670.35;1694150;84;21376;-76
2021/01/03 06:25:27;;;;;;;32.65;20.97;;;;;;;2.30;91.87;101675.44;1695423;84;21250;-76
2021/01/03 06:28:50;;;;;;;33.50;21.27;;;;;;;2.32;91.74;101675.38;1693474;84;21364;-75
2021/01/03 06:32:16;;;;;;;39.67;23.15;;;;;;;2.33;91.75;101671.70;1695427;84;21872;-77
2021/01/03 06:35:48;;;;;;;23.73;16.45;;;;;;;2.33;91.73;101682.50;1694357;84;21320;-76
2021/01/03 06:39:23;;;;;;;22.42;13.90;;;;;;;2.30;91.73;101677.66;1695315;84;21604;-76
2021/01/03 06:42:56;;;;;;;21.95;14.98;;;;;;;2.32;91.80;101679.42;1695228;84;21856;-77
2021/01/03 06:46:46;;;;;;;20.02;13.72;;;;;;;2.32;91.87;101681.64;1695398;84;21332;-77
2021/01/03 06:50:32;;;;;;;24.32;16.75;;;;;;;2.33;91.91;101678.45;1695442;84;21349;-76
2021/01/03 06:54:00;;;;;;;26.75;16.37;;;;;;;2.33;91.95;101682.50;1695260;84;21867;-76
2021/01/03 06:57:41;;;;;;;22.40;15.03;;;;;;;2.30;91.82;101690.29;1695042;84;21214;-76
2021/01/03 07:01:06;;;;;;;23.80;15.95;;;;;;;2.32;91.89;101687.52;1694051;84;21348;-77
2021/01/03 07:04:23;;;;;;;23.83;16.02;;;;;;;2.37;92.00;101696.22;1695304;84;21337;-77
2021/01/03 07:07:37;;;;;;;22.35;15.15;;;;;;;2.40;92.07;101700.07;1693965;84;21214;-76
2021/01/03 07:10:50;;;;;;;22.48;14.47;;;;;;;2.45;92.16;101707.45;1694928;84;21888;-76
2021/01/03 07:13:55;;;;;;;26.00;15.83;;;;;;;2.46;92.06;101695.69;1695468;84;21372;-76
2021/01/03 07:17:12;;;;;;;26.17;17.07;;;;;;;2.45;91.82;101706.10;1695233;84;21359;-77
2021/01/03 07:20:18;;;;;;;31.05;19.67;;;;;;;2.41;91.67;101704.53;1696269;84;21210;-76
2021/01/03 07:23:51;;;;;;;33.02;19.07;;;;;;;2.37;91.48;101696.22;1695409;84;21384;-76
2021/01/03 07:27:08;;;;;;;27.82;19.10;;;;;;;2.37;91.44;101694.87;1694056;84;21373;-76
2021/01/03 07:30:18;;;;;;;27.37;18.77;;;;;;;2.42;91.57;101691.42;1644964;86;21321;-77
2021/01/03 07:33:28;;;;;;;19.02;12.18;;;;;;;2.49;91.66;101695.48;1662058;86;21178;-77
2021/01/03 07:36:52;;;;;;;24.80;15.40;;;;;;;2.58;91.75;101700.34;1660863;86;21420;-77
2021/01/03 07:40:17;;;;;;;29.98;17.32;;;;;;;2.64;91.69;101697.78;1660864;86;21852;-76
2021/01/03 07:43:23;;;;;;;35.20;20.75;;;;;;;2.70;91.62;101703.67;1662859;86;21281;-77
2021/01/03 07:46:52;;;;;;;32.73;20.68;;;;;;;2.79;91.52;101700.91;1662782;86;21286;-76
2021/01/03 07:49:58;;;;;;;38.50;23.05;;;;;;;2.87;91.02;101702.67;1662860;86;21218;-76
2021/01/03 07:53:23;;;;;;;31.52;20.32;;;;;;;2.87;91.02;101702.67;1662755;86;21214;-77
2021/01/03 07:56:32;;;;;;;32.03;20.48;;;;;;;2.94;90.90;101704.50;1662287;86;21191;-76
2021/01/03 07:59:38;;;;;;;33.75;20.57;;;;;;;2.97;90.88;101706.55;1661883;86;21198;-76
2021/01/03 08:02:43;;;;;;;37.28;22.50;;;;;;;3.04;90.75;101711.08;1661930;86;21329;-77
2021/01/03 08:05:49;;;;;;;40.17;24.12;;;;;;;3.11;90.59;101710.25;1661710;86;21872;-76
2021/01/03 08:09:01;;;;;;;36.83;22.60;;;;;;;3.19;90.45;101706.08;1662816;86;21151;-76
2021/01/03 08:12:29;;;;;;;38.05;23.02;;;;;;;3.22;90.21;101711.31;1662864;86;21274;-76
2021/01/03 08:15:38;;;;;;;42.25;24.43;;;;;;;3.25;89.96;101711.62;1662762;86;21174;-76
2021/01/03 08:18:47;;;;;;;41.35;23.65;;;;;;;3.24;89.58;101706.66;1660523;86;21246;-76
2021/01/03 08:21:55;;;;;;;37.70;22.73;;;;;;;3.29;89.54;101702.32;1662425;86;21336;-76
2021/01/03 08:25:04;;;;;;;37.75;22.75;;;;;;;3.33;89.21;101695.27;1625859;86;21784;-77
2021/01/03 08:28:28;;;;;;;53.83;28.85;;;;;;;3.38;88.98;101699.52;1661187;86;21325;-77
2021/01/03 08:31:36;;;;;;;54.95;31.52;;;;;;;3.43;88.92;101701.45;1662723;86;21177;-77
2021/01/03 08:34:43;;;;;;;48.63;31.07;;;;;;;3.47;88.62;101703.00;1642063;86;21317;-77
2021/01/03 08:37:52;;;;;;;46.83;27.35;;;;;;;3.49;88.35;101703.31;1662753;86;21243;-77
2021/01/03 08:40:57;;;;;;;40.43;24.95;;;;;;;3.49;88.07;101704.66;1662868;86;21191;-76
2021/01/03 08:44:04;;;;;;;40.33;23.83;;;;;;;3.50;88.03;101706.88;1662689;86;21266;-77
2021/01/03 08:47:29;;;;;;;51.02;31.60;;;;;;;3.50;87.92;101706.39;1661907;86;21806;-77
2021/01/03 08:50:39;;;;;;;61.48;37.75;;;;;;;3.52;88.05;101703.09;1662552;86;21345;-77
2021/01/03 08:53:45;;;;;;;54.42;35.33;;;;;;;3.57;87.83;101709.56;1662020;86;21813;-76
2021/01/03 08:56:56;;;;;;;53.45;32.67;;;;;;;3.60;87.63;101701.27;1660966;86;21309;-76
2021/01/03 09:00:02;;;;;;;45.85;26.20;;;;;;;3.63;87.53;101701.58;1660815;86;21345;-76
2021/01/03 09:03:07;;;;;;;48.68;28.90;;;;;;;3.64;87.53;101703.30;1661970;86;21312;-76
2021/01/03 09:06:12;;;;;;;48.83;30.77;;;;;;;3.66;87.58;101695.45;1662896;86;21768;-77
2021/01/03 09:09:24;;;;;;;57.23;34.50;;;;;;;3.73;87.61;101697.30;1662897;86;21293;-76
2021/01/03 09:12:45;;;;;;;54.98;30.17;;;;;;;3.77;87.40;101696.14;1662209;86;21199;-77
2021/01/03 09:15:54;;;;;;;46.30;26.48;;;;;;;3.83;87.50;101693.90;1661986;86;21928;-77
2021/01/03 09:19:13;;;;;;;39.67;22.77;;;;;;;3.85;87.42;101689.23;1661593;86;21944;-77
2021/01/03 09:22:19;;;;;;;35.20;21.48;;;;;;;3.85;87.24;101685.66;1661784;86;21352;-77
2021/01/03 09:25:34;;;;;;;34.35;21.57;;;;;;;3.87;87.14;101684.23;1662016;86;21828;-76
2021/01/03 09:28:45;;;;;;;52.27;28.35;;;;;;;3.83;86.73;101684.42;1660724;86;21369;-76
2021/01/03 09:32:17;;;;;;;80.42;47.98;;;;;;;3.84;86.74;101682.58;1682909;84;21225;-77
2021/01/03 09:36:03;;;;;;;73.28;43.05;;;;;;;3.83;86.64;101680.85;1692013;84;21372;-77
2021/01/03 09:39:45;;;;;;;122.28;60.43;;;;;;;3.79;86.33;101688.30;1694074;84;21348;-77
2021/01/03 09:43:02;;;;;;;80.00;46.95;;;;;;;3.75;86.14;101681.83;1696449;84;21277;-77
2021/01/03 09:46:28;;;;;;;82.62;48.52;;;;;;;3.70;86.05;101675.84;1696422;84;21174;-76
2021/01/03 09:49:57;;;;;;;86.63;50.12;;;;;;;3.68;85.99;101674.59;1696434;84;21809;-77
2021/01/03 09:53:29;;;;;;;93.75;48.02;;;;;;;3.66;85.97;101679.22;1696350;84;21198;-76
2021/01/03 09:56:46;;;;;;;103.87;52.98;;;;;;;3.67;85.65;101674.22;1696341;84;21288;-77
2021/01/03 09:59:54;;;;;;;128.32;61.33;;;;;;;3.68;85.36;101668.31;1696332;84;21315;-76
2021/01/03 10:02:59;;;;;;;82.45;41.70;;;;;;;3.66;85.21;101672.45;1683188;84;21300;-76
2021/01/03 10:06:05;;;;;;;82.33;41.18;;;;;;;3.66;85.57;101675.16;1696468;84;21317;-76
2021/01/03 10:09:24;;;;;;;70.42;39.03;;;;;;;3.66;85.58;101665.69;1694487;84;21424;-77
2021/01/03 10:12:38;;;;;;;105.32;68.65;;;;;;;3.68;85.80;101664.27;1696432;84;21225;-76
2021/01/03 10:15:49;;;;;;;73.00;41.77;;;;;;;3.71;85.79;101658.14;1696393;84;21300;-77
2021/01/03 10:18:52;;;;;;;74.47;41.33;;;;;;;3.72;85.34;101645.02;1696416;84;21286;-76
2021/01/03 10:21:58;;;;;;;83.15;59.93;;;;;;;3.72;85.25;101646.38;1696416;84;21818;-77
2021/01/03 10:25:13;;;;;;;65.78;37.60;;;;;;;3.75;85.18;101647.99;1696451;84;21285;-77
2021/01/03 10:28:23;;;;;;;51.13;28.10;;;;;;;3.75;84.74;101649.34;1696339;84;21178;-77
2021/01/03 10:31:27;;;;;;;51.58;27.67;;;;;;;3.75;84.25;101646.16;1696405;84;21285;-76
2021/01/03 10:34:33;;;;;;;64.80;45.60;;;;;;;3.79;84.50;101637.36;1696392;84;21860;-76
2021/01/03 10:37:38;;;;;;;48.95;35.85;;;;;;;3.84;84.79;101634.72;1696401;84;21750;-77
2021/01/03 10:40:43;;;;;;;49.20;29.87;;;;;;;3.92;84.75;101636.08;1694609;84;21400;-76
2021/01/03 10:43:51;;;;;;;66.50;41.95;;;;;;;3.91;84.27;101625.73;1696369;84;21294;-76
2021/01/03 10:46:58;;;;;;;48.90;24.32;;;;;;;3.93;84.16;101618.37;1696429;84;21179;-77
2021/01/03 10:50:03;;;;;;;50.78;24.52;;;;;;;3.96;83.75;101620.88;1696447;84;21337;-76
2021/01/03 10:53:09;;;;;;;99.58;80.97;;;;;;;3.97;83.68;101615.84;1696392;84;21757;-77
2021/01/03 10:56:16;;;;;;;73.20;44.10;;;;;;;3.99;83.73;101614.38;1696393;84;21272;-76
2021/01/03 10:59:22;;;;;;;73.75;40.03;;;;;;;4.03;83.52;101614.56;1695462;84;21317;-76
2021/01/03 11:02:28;;;;;;;83.00;43.95;;;;;;;4.12;83.34;101610.38;1695476;84;21266;-77
2021/01/03 11:05:33;;;;;;;82.80;42.78;;;;;;;4.13;83.11;101610.25;1695449;84;21320;-77
2021/01/03 11:08:40;;;;;;;70.47;52.48;;;;;;;4.11;83.18;101602.73;1695384;84;21447;-77
2021/01/03 11:11:46;;;;;;;59.23;47.98;;;;;;;4.11;83.09;101610.86;1694251;84;21321;-77
2021/01/03 11:14:52;;;;;;;88.82;77.42;;;;;;;4.09;82.96;101606.02;1693920;84;21198;-77
2021/01/03 11:17:58;;;;;;;46.13;36.70;;;;;;;4.08;82.83;101603.80;1695478;84;21250;-76
2021/01/03 11:21:10;;;;;;;37.85;27.77;;;;;;;4.10;82.89;101608.64;1694669;84;21883;-76
2021/01/03 11:24:13;;;;;;;48.65;39.23;;;;;;;4.15;82.56;101608.82;1695225;84;21920;-76
2021/01/03 11:27:23;;;;;;;76.00;59.45;;;;;;;4.10;82.60;101611.34;1696159;84;21218;-77
2021/01/03 11:30:28;;;;;;;79.25;59.65;;;;;;;4.05;83.37;101605.87;1696411;84;21218;-77
2021/01/03 11:33:35;;;;;;;81.00;67.42;;;;;;;4.03;83.14;101599.17;1694656;84;21372;-76
2021/01/03 11:36:40;;;;;;;91.92;77.72;;;;;;;4.05;83.07;101595.90;1696410;84;21753;-76
2021/01/03 11:39:46;;;;;;;59.38;41.63;;;;;;;4.02;83.01;101596.59;1696290;84;21784;-77
2021/01/03 11:42:51;;;;;;;48.02;37.20;;;;;;;3.97;82.52;101600.09;1695652;84;21210;-76
2021/01/03 11:45:56;;;;;;;58.17;39.73;;;;;;;3.91;82.66;101603.21;1695364;84;21360;-77
2021/01/03 11:49:01;;;;;;;53.00;34.25;;;;;;;3.83;83.33;101592.39;1695409;84;21856;-77
2021/01/03 11:52:12;;;;;;;49.93;38.02;;;;;;;3.79;83.70;101595.41;1694066;84;21729;-76
2021/01/03 11:55:20;;;;;;;42.48;31.80;;;;;;;3.73;83.68;101586.34;1696325;84;21202;-77
2021/01/03 11:58:25;;;;;;;38.58;27.15;;;;;;;3.74;83.96;101580.82;1696399;84;21733;-77
2021/01/03 12:01:33;;;;;;;54.53;42.58;;;;;;;3.79;84.65;101585.44;1695213;84;21401;-76
2021/01/03 12:04:39;;;;;;;44.95;34.83;;;;;;;3.84;85.08;101580.59;1695476;84;21190;-77
2021/01/03 12:07:44;;;;;;;101.22;88.78;;;;;;;3.91;85.63;101580.20;1695456;84;21361;-76
2021/01/03 12:10:50;;;;;;;53.52;41.48;;;;;;;3.97;85.71;101578.43;1693960;84;21225;-76
2021/01/03 12:14:01;;;;;;;90.28;76.87;;;;;;;3.98;85.22;101585.57;1695475;84;21369;-77
2021/01/03 12:17:07;;;;;;;;;;;;;;;3.96;84.94;101587.53;1697966;84;21321;-77
2021/01/03 12:20:14;;;;;;;46.75;31.97;;;;;;;3.90;84.83;101581.15;1695451;84;20243;-76
2021/01/03 12:23:19;;;;;;;46.83;33.92;;;;;;;3.77;84.79;101584.69;1696310;84;21277;-76
2021/01/03 12:26:25;;;;;;;41.65;30.92;;;;;;;3.70;84.81;101589.24;1696247;84;21325;-76
2021/01/03 12:29:32;;;;;;;47.65;29.80;;;;;;;3.65;84.95;101578.72;1696370;84;21242;-76
2021/01/03 12:32:38;;;;;;;64.50;50.48;;;;;;;3.65;85.08;101584.62;1694396;84;21360;-77
2021/01/03 12:35:45;;;;;;;63.38;49.35;;;;;;;3.63;85.49;101583.38;1702074;84;21217;-77
2021/01/03 12:38:50;;;;;;;70.30;60.40;;;;;;;3.64;85.65;101576.13;1693831;84;21332;-77
2021/01/03 12:41:57;;;;;;;52.43;42.90;;;;;;;3.65;85.60;101578.72;1706268;84;21229;-77
2021/01/03 12:45:03;;;;;;;40.90;29.60;;;;;;;3.66;85.76;101580.45;1706485;84;21285;-77
2021/01/03 12:48:09;;;;;;;48.48;38.63;;;;;;;3.67;85.86;101570.49;1706458;84;21162;-77
2021/01/03 12:51:14;;;;;;;45.55;37.55;;;;;;;3.66;85.93;101577.75;1706391;84;21329;-77
2021/01/03 12:54:22;;;;;;;68.83;53.80;;;;;;;3.66;86.19;101569.63;1706519;84;21272;-77
2021/01/03 12:57:27;;;;;;;33.98;21.35;;;;;;;3.67;86.44;101564.63;1706068;84;21875;-77
2021/01/03 13:00:34;;;;;;;42.53;30.25;;;;;;;3.67;86.45;101565.98;1706649;84;21277;-76
2021/01/03 13:03:39;;;;;;;50.50;35.52;;;;;;;3.64;86.42;101566.17;1705582;84;21313;-77
2021/01/03 13:06:45;;;;;;;86.22;71.22;;;;;;;3.62;86.62;101561.33;1705414;84;21182;-77
2021/01/03 13:09:51;;;;;;;45.23;34.05;;;;;;;3.61;87.07;101565.49;1705511;84;21396;-76
2021/01/03 13:12:57;;;;;;;49.88;29.52;;;;;;;3.60;86.74;101552.45;1704544;84;21890;-77
2021/01/03 13:16:04;;;;;;;50.23;36.48;;;;;;;3.60;86.86;101545.69;1705497;84;21321;-77
2021/01/03 13:19:09;;;;;;;43.58;29.25;;;;;;;3.56;87.23;101538.25;1705557;84;21344;-76
2021/01/03 13:22:16;;;;;;;48.95;32.13;;;;;;;3.55;87.45;101549.19;1705014;84;21812;-77
2021/01/03 13:25:22;;;;;;;35.05;21.42;;;;;;;3.52;87.52;101546.19;1706486;84;21773;-77
2021/01/03 13:28:28;;;;;;;57.33;40.67;;;;;;;3.49;87.69;101550.47;1706511;84;21761;-77
2021/01/03 13:31:36;;;;;;;50.58;35.90;;;;;;;3.46;87.95;101548.44;1706521;84;21831;-76
2021/01/03 13:34:41;;;;;;;69.77;51.58;;;;;;;3.47;88.30;101550.17;1706462;84;21324;-76
2021/01/03 13:37:47;;;;;;;49.20;31.05;;;;;;;3.51;88.47;101540.89;1678906;85;21274;-77
2021/01/03 13:40:53;;;;;;;83.20;66.55;;;;;;;3.53;88.47;101542.53;1678386;85;21876;-77
2021/01/03 13:44:00;;;;;;;48.30;30.02;;;;;;;3.53;88.52;101533.55;1677849;85;21369;-77
2021/01/03 13:47:07;;;;;;;51.95;35.88;;;;;;;3.54;88.59;101537.98;1677976;85;21317;-76
2021/01/03 13:50:13;;;;;;;46.70;29.15;;;;;;;3.55;88.50;101543.29;1677952;85;21378;-77
2021/01/03 13:53:19;;;;;;;71.35;52.80;;;;;;;3.56;88.57;101542.31;1678834;85;21354;-77
2021/01/03 13:56:24;;;;;;;41.95;27.42;;;;;;;3.54;88.72;101543.41;1678869;85;21171;-77
2021/01/03 13:59:30;;;;;;;51.25;38.70;;;;;;;3.53;88.86;101542.53;1678895;85;21821;-77
2021/01/03 14:02:35;;;;;;;43.63;26.30;;;;;;;3.55;88.96;101541.94;1679012;85;21321;-77
2021/01/03 14:05:49;;;;;;;43.28;28.98;;;;;;;3.54;89.05;101544.27;1678905;85;21286;-77
2021/01/03 14:08:55;;;;;;;46.75;27.73;;;;;;;3.52;89.12;101537.20;1677987;85;21885;-77
2021/01/03 14:12:07;;;;;;;52.05;35.70;;;;;;;3.52;89.36;101536.72;1677607;85;21342;-76
2021/01/03 14:15:14;;;;;;;45.38;27.35;;;;;;;3.51;89.60;101535.48;1677937;85;21321;-76
2021/01/03 14:18:20;;;;;;;46.42;31.27;;;;;;;3.53;89.79;101528.14;1678881;85;21281;-76
2021/01/03 14:21:29;;;;;;;57.38;47.35;;;;;;;3.56;89.93;101527.92;1678887;85;21270;-77
2021/01/03 14:24:34;;;;;;;48.15;33.13;;;;;;;3.59;89.97;101531.78;1679013;85;21286;-77
2021/01/03 14:27:39;;;;;;;62.00;44.38;;;;;;;3.60;89.89;101521.34;1678764;85;21314;-77
2021/01/03 14:30:44;;;;;;;54.27;34.23;;;;;;;3.59;89.77;101516.91;1678922;85;21235;-77
2021/01/03 14:33:50;;;;;;;57.03;36.63;;;;;;;3.58;89.65;101521.45;1678883;85;21290;-77
2021/01/03 14:36:57;;;;;;;50.83;36.00;;;;;;;3.53;89.70;101524.09;1682852;84;21769;-76